Time;durP1;ratioP1;P1;durP2;ratioP2;P2;SDS_P1;SDS_P2;PMS_P1;PMS_P2;Temp;Humidity;BMP_temperature;BMP_pressure;BME280_temperature;BME280_humidity;BME280_pressure;Samples;Min_cycle;Max_cycle;Signal;HPM_P1;HPM_P2
2022/03/03 00:01:49;;;;;;;10.18;9.27;;;;;;;;;;4980034;28;20651;-51
2022/03/03 00:04:17;;;;;;;9.95;9.00;;;;;;;;;;4979885;28;20289;-51
2022/03/03 00:06:44;;;;;;;9.60;8.70;;;;;;;;;;4994769;28;20240;-51
2022/03/03 00:09:12;;;;;;;9.02;8.23;;;;;;;;;;4999913;28;20319;-51
2022/03/03 00:11:39;;;;;;;9.27;8.48;;;;;;;;;;4994189;28;20230;-51
2022/03/03 00:14:07;;;;;;;8.55;7.80;;;;;;;;;;4980050;28;20330;-51
2022/03/03 00:16:36;;;;;;;8.85;7.95;;;;;;;;;;4979731;28;20216;-51
2022/03/03 00:19:03;;;;;;;8.68;7.88;;;;;;;;;;4980025;28;20326;-50
2022/03/03 00:21:31;;;;;;;8.35;7.65;;;;;;;;;;4980576;28;20286;-51
2022/03/03 00:23:58;;;;;;;8.27;7.57;;;;;;;;;;4980422;28;20239;-50
2022/03/03 00:26:26;;;;;;;7.88;7.18;;;;;;;;;;4979552;28;20627;-50
2022/03/03 00:28:53;;;;;;;7.85;7.15;;;;;;;;;;4980103;28;20294;-51
2022/03/03 00:31:20;;;;;;;8.18;7.47;;;;;;;;;;4979182;28;20227;-51
2022/03/03 00:33:49;;;;;;;7.10;6.50;;;;;;;;;;4979850;28;20231;-51
2022/03/03 00:36:16;;;;;;;7.75;6.90;;;;;;;;;;4979662;28;20594;-50
2022/03/03 00:38:44;;;;;;;7.07;6.47;;;;;;;;;;4980336;28;20259;-50
2022/03/03 00:41:11;;;;;;;7.28;6.68;;;;;;;;;;4979706;28;20227;-50
2022/03/03 00:43:39;;;;;;;7.15;6.50;;;;;;;;;;4979807;28;20298;-51
2022/03/03 00:46:06;;;;;;;6.43;5.93;;;;;;;;;;4980035;28;20231;-51
2022/03/03 00:48:34;;;;;;;6.97;6.38;;;;;;;;;;4979138;28;20933;-51
2022/03/03 00:51:07;;;;;;;7.38;6.10;;;;;;;;;;4979902;28;20294;-51
2022/03/03 00:53:35;;;;;;;6.93;6.22;;;;;;;;;;4960351;28;20244;-51
2022/03/03 00:56:02;;;;;;;6.53;5.93;;;;;;;;;;4965053;28;20531;-51
2022/03/03 00:58:30;;;;;;;6.72;6.13;;;;;;;;;;4978875;28;20233;-51
2022/03/03 01:00:58;;;;;;;6.72;6.13;;;;;;;;;;4979492;28;20227;-50
2022/03/03 01:03:25;;;;;;;6.07;5.57;;;;;;;;;;4979467;28;20631;-50
2022/03/03 01:05:53;;;;;;;5.97;5.45;;;;;;;;;;4979008;28;20318;-50
2022/03/03 01:08:21;;;;;;;6.13;5.63;;;;;;;;;;4979435;28;20228;-51
2022/03/03 01:10:49;;;;;;;6.20;5.70;;;;;;;;;;4978529;28;20319;-50
2022/03/03 01:13:16;;;;;;;6.13;5.63;;;;;;;;;;4978502;28;20592;-51
2022/03/03 01:15:44;;;;;;;6.10;5.60;;;;;;;;;;4979341;28;20228;-51
2022/03/03 01:18:12;;;;;;;6.10;5.50;;;;;;;;;;4979006;28;20644;-51
2022/03/03 01:20:39;;;;;;;6.00;5.45;;;;;;;;;;4978954;28;20227;-51
2022/03/03 01:23:07;;;;;;;5.57;5.07;;;;;;;;;;4978837;28;20235;-50
2022/03/03 01:25:35;;;;;;;5.90;5.40;;;;;;;;;;4979100;28;20319;-50
2022/03/03 01:28:03;;;;;;;5.88;5.38;;;;;;;;;;4978580;28;20231;-51
2022/03/03 01:30:32;;;;;;;5.85;5.35;;;;;;;;;;4978933;28;20253;-50
2022/03/03 01:32:59;;;;;;;5.68;5.18;;;;;;;;;;4978579;28;20259;-50
2022/03/03 01:35:27;;;;;;;5.30;4.85;;;;;;;;;;4979520;28;20566;-51
2022/03/03 01:37:54;;;;;;;5.72;5.22;;;;;;;;;;4979618;28;20594;-51
2022/03/03 01:40:23;;;;;;;5.38;4.97;;;;;;;;;;4968928;28;20495;-50
2022/03/03 01:42:52;;;;;;;5.65;5.15;;;;;;;;;;4979041;28;20634;-51
2022/03/03 01:45:20;;;;;;;5.95;5.45;;;;;;;;;;4977925;28;20243;-51
2022/03/03 01:47:47;;;;;;;5.35;4.85;;;;;;;;;;4978084;28;20278;-51
2022/03/03 01:50:15;;;;;;;5.38;4.88;;;;;;;;;;4979113;28;20237;-50
2022/03/03 01:52:43;;;;;;;5.35;4.95;;;;;;;;;;4977849;28;20264;-50
2022/03/03 01:55:11;;;;;;;5.60;5.18;;;;;;;;;;4978767;28;20298;-50
2022/03/03 01:57:39;;;;;;;5.68;5.18;;;;;;;;;;4978180;28;20231;-50
2022/03/03 02:00:09;;;;;;;4.82;4.43;;;;;;;;;;4977167;28;20223;-50
2022/03/03 02:02:37;;;;;;;5.70;5.20;;;;;;;;;;4978831;28;20314;-50
2022/03/03 02:05:04;;;;;;;5.60;5.10;;;;;;;;;;4978222;28;20219;-50
2022/03/03 02:07:32;;;;;;;4.88;4.47;;;;;;;;;;4978093;28;20231;-51
2022/03/03 02:09:59;;;;;;;5.00;4.60;;;;;;;;;;4977838;28;20227;-50
2022/03/03 02:12:27;;;;;;;5.00;4.60;;;;;;;;;;4978255;28;20327;-50
2022/03/03 02:14:54;;;;;;;6.28;5.32;;;;;;;;;;4978091;28;20320;-50
2022/03/03 02:17:23;;;;;;;5.00;4.60;;;;;;;;;;4977970;28;20600;-50
2022/03/03 02:19:51;;;;;;;5.85;5.35;;;;;;;;;;4977079;28;20282;-50
2022/03/03 02:22:20;;;;;;;5.13;4.70;;;;;;;;;;4977326;28;20255;-51
2022/03/03 02:24:47;;;;;;;5.28;4.78;;;;;;;;;;4977125;28;20557;-50
2022/03/03 02:27:14;;;;;;;5.05;4.65;;;;;;;;;;4976879;28;20587;-50
2022/03/03 02:29:42;;;;;;;5.18;4.68;;;;;;;;;;4977528;28;20231;-50
2022/03/03 02:32:10;;;;;;;5.13;4.72;;;;;;;;;;4977332;28;20274;-50
2022/03/03 02:34:37;;;;;;;5.18;4.75;;;;;;;;;;4977236;28;20245;-50
2022/03/03 02:37:06;;;;;;;5.35;4.85;;;;;;;;;;4977239;28;20258;-50
2022/03/03 02:39:35;;;;;;;5.20;4.80;;;;;;;;;;4977326;28;20223;-51
2022/03/03 02:42:02;;;;;;;4.90;4.50;;;;;;;;;;4976878;28;20319;-50
2022/03/03 02:44:30;;;;;;;4.90;4.50;;;;;;;;;;4976759;28;20275;-50
2022/03/03 02:46:57;;;;;;;4.93;4.53;;;;;;;;;;4976810;28;20236;-50
2022/03/03 02:49:25;;;;;;;5.20;4.80;;;;;;;;;;4994748;28;20258;-51
2022/03/03 02:51:53;;;;;;;5.10;4.60;;;;;;;;;;4991436;28;20302;-51
2022/03/03 02:54:21;;;;;;;4.80;4.40;;;;;;;;;;4976315;28;20250;-51
2022/03/03 02:59:35;;;;;;;4.97;4.57;;;;;;;;;;4976094;28;20238;-50
2022/03/03 03:02:03;;;;;;;4.68;4.28;;;;;;;;;;4977468;28;20231;-51
2022/03/03 03:04:30;;;;;;;4.65;4.25;;;;;;;;;;4977476;28;20227;-51
2022/03/03 03:06:58;;;;;;;4.70;4.30;;;;;;;;;;4976450;28;20223;-51
2022/03/03 03:09:25;;;;;;;5.10;4.70;;;;;;;;;;4977386;28;20619;-51
2022/03/03 03:11:54;;;;;;;4.93;4.53;;;;;;;;;;4976570;28;20654;-51
2022/03/03 03:14:21;;;;;;;4.57;4.18;;;;;;;;;;4981039;28;20271;-51
2022/03/03 03:16:49;;;;;;;4.47;4.18;;;;;;;;;;4980460;28;20618;-50
2022/03/03 03:19:16;;;;;;;4.25;3.95;;;;;;;;;;4981273;28;20498;-50
2022/03/03 03:21:44;;;;;;;4.72;4.32;;;;;;;;;;4980833;28;20294;-50
2022/03/03 03:24:11;;;;;;;4.88;4.47;;;;;;;;;;4980555;28;20227;-51
2022/03/03 03:26:39;;;;;;;4.63;4.22;;;;;;;;;;4980724;28;20227;-50
2022/03/03 03:29:08;;;;;;;4.65;4.25;;;;;;;;;;4981045;28;20625;-51
2022/03/03 03:31:35;;;;;;;5.45;4.95;;;;;;;;;;4965596;28;20734;-50
2022/03/03 03:34:03;;;;;;;4.45;4.05;;;;;;;;;;4981061;28;20278;-51
2022/03/03 03:36:31;;;;;;;4.90;4.50;;;;;;;;;;4980562;28;20285;-50
2022/03/03 03:38:58;;;;;;;4.72;4.32;;;;;;;;;;4980647;28;20227;-50
2022/03/03 03:41:26;;;;;;;5.10;4.70;;;;;;;;;;4980492;28;20322;-50
2022/03/03 03:43:53;;;;;;;4.60;4.20;;;;;;;;;;4980886;28;20326;-51
2022/03/03 03:46:22;;;;;;;4.60;4.30;;;;;;;;;;4979777;28;20647;-51
2022/03/03 03:48:49;;;;;;;4.70;4.30;;;;;;;;;;4981249;28;20231;-51
2022/03/03 03:51:17;;;;;;;4.82;4.43;;;;;;;;;;4982706;28;20725;-50
2022/03/03 03:53:44;;;;;;;4.85;4.45;;;;;;;;;;4982952;28;20622;-51
2022/03/03 03:56:12;;;;;;;5.20;4.75;;;;;;;;;;4979526;28;20679;-51
2022/03/03 03:58:39;;;;;;;5.05;4.65;;;;;;;;;;4980355;28;20338;-50
2022/03/03 04:01:06;;;;;;;4.75;4.35;;;;;;;;;;4980617;28;20326;-50
2022/03/03 04:03:35;;;;;;;5.00;4.60;;;;;;;;;;4979670;28;20270;-50
2022/03/03 04:06:04;;;;;;;4.57;4.18;;;;;;;;;;4981199;28;20240;-50
2022/03/03 04:08:32;;;;;;;4.57;4.18;;;;;;;;;;4979396;28;20224;-50
2022/03/03 04:10:59;;;;;;;4.38;4.07;;;;;;;;;;4980176;28;20710;-50
2022/03/03 04:13:27;;;;;;;4.78;4.38;;;;;;;;;;4980119;28;20242;-51
2022/03/03 04:15:54;;;;;;;4.80;4.40;;;;;;;;;;4980306;28;20439;-51
2022/03/03 04:18:22;;;;;;;4.90;4.50;;;;;;;;;;4980165;28;20204;-50
2022/03/03 04:20:51;;;;;;;4.90;4.50;;;;;;;;;;4978884;28;20294;-50
2022/03/03 04:23:19;;;;;;;4.55;4.18;;;;;;;;;;4996700;28;20258;-51
2022/03/03 04:25:47;;;;;;;4.90;4.50;;;;;;;;;;4995131;28;20232;-51
2022/03/03 04:28:14;;;;;;;4.70;4.30;;;;;;;;;;4980256;28;20239;-50
2022/03/03 04:30:42;;;;;;;4.88;4.47;;;;;;;;;;4980502;28;20208;-50
2022/03/03 04:33:09;;;;;;;5.30;4.80;;;;;;;;;;4979521;28;20236;-50
2022/03/03 04:35:37;;;;;;;4.95;4.55;;;;;;;;;;4980259;28;20664;-50
2022/03/03 04:38:06;;;;;;;4.75;4.35;;;;;;;;;;4979826;28;20318;-50
2022/03/03 04:40:33;;;;;;;5.00;4.50;;;;;;;;;;4980059;28;20499;-50
2022/03/03 04:43:01;;;;;;;4.60;4.20;;;;;;;;;;4979535;28;20238;-51
2022/03/03 04:45:28;;;;;;;5.03;4.63;;;;;;;;;;4979619;28;20247;-51
2022/03/03 04:47:56;;;;;;;4.97;4.57;;;;;;;;;;4979897;28;20228;-50
2022/03/03 04:50:24;;;;;;;4.80;4.40;;;;;;;;;;4979657;28;20498;-51
2022/03/03 04:52:51;;;;;;;4.95;4.55;;;;;;;;;;4979146;28;20278;-51
2022/03/03 04:55:20;;;;;;;4.78;4.38;;;;;;;;;;4979061;28;20243;-50
2022/03/03 04:57:48;;;;;;;4.55;4.18;;;;;;;;;;4979343;28;20275;-51
2022/03/03 05:00:16;;;;;;;4.60;4.20;;;;;;;;;;4980267;28;20219;-51
2022/03/03 05:02:44;;;;;;;5.35;4.95;;;;;;;;;;4979703;28;20270;-51
2022/03/03 05:05:11;;;;;;;4.97;4.57;;;;;;;;;;4980062;28;20208;-50
2022/03/03 05:07:39;;;;;;;4.68;4.28;;;;;;;;;;4978865;28;20243;-51
2022/03/03 05:10:07;;;;;;;5.00;4.60;;;;;;;;;;4978965;28;20231;-50
2022/03/03 05:12:37;;;;;;;5.07;4.68;;;;;;;;;;4980117;28;20231;-51
2022/03/03 05:15:05;;;;;;;4.75;4.35;;;;;;;;;;4979561;28;20260;-51
2022/03/03 05:17:32;;;;;;;5.15;4.75;;;;;;;;;;4978868;28;20561;-51
2022/03/03 05:20:00;;;;;;;5.10;4.70;;;;;;;;;;4979445;28;20306;-51
2022/03/03 05:22:27;;;;;;;5.07;4.68;;;;;;;;;;4979315;28;20662;-51
2022/03/03 05:24:55;;;;;;;5.00;4.60;;;;;;;;;;4978628;28;20228;-51
2022/03/03 05:27:23;;;;;;;5.15;4.68;;;;;;;;;;4979024;28;20199;-51
2022/03/03 05:29:52;;;;;;;5.47;5.00;;;;;;;;;;4979400;28;20307;-50
2022/03/03 05:32:19;;;;;;;5.28;4.78;;;;;;;;;;4978398;28;20299;-51
2022/03/03 05:34:46;;;;;;;5.30;4.80;;;;;;;;;;4977917;28;20322;-51
2022/03/03 05:37:15;;;;;;;4.97;4.57;;;;;;;;;;4978632;28;20222;-51
2022/03/03 05:39:44;;;;;;;5.35;4.85;;;;;;;;;;4978233;28;20204;-51
2022/03/03 05:42:13;;;;;;;5.25;4.85;;;;;;;;;;4978728;28;20243;-50
2022/03/03 05:44:41;;;;;;;5.50;5.10;;;;;;;;;;4982646;28;20231;-50
2022/03/03 05:47:10;;;;;;;5.70;5.20;;;;;;;;;;4993798;28;20255;-50
2022/03/03 05:49:37;;;;;;;4.97;4.57;;;;;;;;;;4977646;28;20200;-51
2022/03/03 05:52:06;;;;;;;5.80;5.30;;;;;;;;;;4977397;28;20203;-51
2022/03/03 05:54:33;;;;;;;5.90;5.30;;;;;;;;;;4977420;28;20224;-51
2022/03/03 05:57:02;;;;;;;5.40;4.90;;;;;;;;;;4976398;28;20282;-51
2022/03/03 05:59:31;;;;;;;5.53;5.03;;;;;;;;;;4976589;28;20207;-50
2022/03/03 06:01:59;;;;;;;5.10;4.70;;;;;;;;;;4977002;28;20235;-51
2022/03/03 06:04:30;;;;;;;5.03;4.63;;;;;;;;;;4976921;28;20693;-51
2022/03/03 06:07:01;;;;;;;5.35;4.85;;;;;;;;;;4976008;28;20212;-51
2022/03/03 06:09:32;;;;;;;4.85;4.45;;;;;;;;;;4975269;28;20204;-51
2022/03/03 06:12:06;;;;;;;5.53;5.03;;;;;;;;;;4976282;28;20219;-51
2022/03/03 06:14:38;;;;;;;5.30;4.90;;;;;;;;;;4976320;28;20229;-50
2022/03/03 06:17:06;;;;;;;5.20;4.80;;;;;;;;;;4975504;28;20203;-50
2022/03/03 06:19:39;;;;;;;5.70;5.20;;;;;;;;;;4975419;28;20195;-51
2022/03/03 06:22:07;;;;;;;4.95;4.55;;;;;;;;;;4975615;28;20207;-51
2022/03/03 06:24:34;;;;;;;5.40;4.90;;;;;;;;;;4975996;28;20330;-51
2022/03/03 06:27:02;;;;;;;5.18;4.75;;;;;;;;;;4976252;28;20294;-50
2022/03/03 06:29:29;;;;;;;5.72;5.28;;;;;;;;;;4975619;28;20200;-51
2022/03/03 06:31:56;;;;;;;5.43;5.03;;;;;;;;;;4975534;28;20235;-51
2022/03/03 06:34:24;;;;;;;5.40;4.90;;;;;;;;;;4976145;28;20306;-50
2022/03/03 06:36:53;;;;;;;5.57;5.07;;;;;;;;;;4975697;28;20207;-51
2022/03/03 06:39:20;;;;;;;5.53;5.03;;;;;;;;;;4975575;28;20196;-50
2022/03/03 06:41:48;;;;;;;5.30;4.80;;;;;;;;;;4976135;28;20546;-50
2022/03/03 06:44:15;;;;;;;5.43;4.97;;;;;;;;;;4975740;28;20227;-50
2022/03/03 06:46:43;;;;;;;5.20;4.70;;;;;;;;;;4975444;28;20555;-50
2022/03/03 06:49:11;;;;;;;5.38;4.97;;;;;;;;;;4975384;28;20212;-50
2022/03/03 06:51:40;;;;;;;5.18;4.68;;;;;;;;;;4975156;28;20290;-51
2022/03/03 06:54:12;;;;;;;5.25;4.75;;;;;;;;;;4960193;28;20302;-50
2022/03/03 06:56:44;;;;;;;5.40;4.97;;;;;;;;;;4975940;28;20321;-50
2022/03/03 06:59:12;;;;;;;5.55;5.05;;;;;;;;;;4974097;28;20211;-50
2022/03/03 07:01:42;;;;;;;5.22;4.80;;;;;;;;;;4975188;28;20204;-50
2022/03/03 07:04:09;;;;;;;5.70;5.20;;;;;;;;;;4975747;28;20594;-50
2022/03/03 07:06:37;;;;;;;5.38;4.90;;;;;;;;;;4975739;28;20828;-50
2022/03/03 07:09:04;;;;;;;5.18;4.78;;;;;;;;;;4975492;28;20200;-50
2022/03/03 07:11:33;;;;;;;5.68;5.18;;;;;;;;;;4976669;28;20215;-50
2022/03/03 07:14:00;;;;;;;5.80;5.30;;;;;;;;;;4974871;28;20208;-50
2022/03/03 07:16:32;;;;;;;5.35;4.75;;;;;;;;;;4975435;28;20752;-50
2022/03/03 07:19:01;;;;;;;5.50;5.00;;;;;;;;;;4975044;28;20210;-50
2022/03/03 07:21:33;;;;;;;5.97;5.38;;;;;;;;;;4974242;28;20266;-50
2022/03/03 07:24:03;;;;;;;5.88;5.38;;;;;;;;;;4974596;28;20269;-50
2022/03/03 07:26:32;;;;;;;5.40;4.90;;;;;;;;;;4975457;28;20229;-50
2022/03/03 07:29:04;;;;;;;5.75;5.25;;;;;;;;;;4976114;28;20579;-50
2022/03/03 07:31:32;;;;;;;5.80;5.30;;;;;;;;;;4975773;28;20712;-50
2022/03/03 07:34:02;;;;;;;5.22;4.80;;;;;;;;;;4975195;28;20674;-51
2022/03/03 07:36:30;;;;;;;5.90;5.40;;;;;;;;;;4976477;28;20234;-50
2022/03/03 07:38:58;;;;;;;5.72;5.22;;;;;;;;;;4975270;28;20208;-50
2022/03/03 07:41:26;;;;;;;5.55;5.05;;;;;;;;;;4976124;28;20588;-50
2022/03/03 07:43:54;;;;;;;5.28;4.80;;;;;;;;;;4975319;28;20236;-50
2022/03/03 07:46:22;;;;;;;5.70;5.20;;;;;;;;;;4974758;28;20259;-50
2022/03/03 07:48:51;;;;;;;6.22;5.63;;;;;;;;;;4974320;28;20212;-50
2022/03/03 07:51:18;;;;;;;6.18;5.68;;;;;;;;;;4974746;28;20614;-51
2022/03/03 07:53:45;;;;;;;5.55;5.05;;;;;;;;;;4975181;28;20251;-50
2022/03/03 07:56:14;;;;;;;6.15;5.35;;;;;;;;;;4975488;28;20294;-50
2022/03/03 07:58:44;;;;;;;5.95;5.45;;;;;;;;;;4975986;28;20200;-50
2022/03/03 08:01:12;;;;;;;5.90;5.30;;;;;;;;;;4977222;28;20208;-50
2022/03/03 08:03:45;;;;;;;5.88;5.35;;;;;;;;;;4978765;28;20298;-50
2022/03/03 08:06:13;;;;;;;5.97;5.45;;;;;;;;;;4979156;28;20210;-50
2022/03/03 08:08:40;;;;;;;5.97;5.38;;;;;;;;;;4978479;28;20541;-50
2022/03/03 08:11:09;;;;;;;5.65;5.18;;;;;;;;;;4978389;28;20654;-51
2022/03/03 08:13:37;;;;;;;6.10;5.50;;;;;;;;;;4977632;28;20204;-50
2022/03/03 08:16:04;;;;;;;6.20;5.60;;;;;;;;;;4969548;28;20232;-50
2022/03/03 08:18:35;;;;;;;5.82;5.25;;;;;;;;;;4975151;28;20212;-51
2022/03/03 08:21:04;;;;;;;5.70;5.10;;;;;;;;;;4968751;28;20203;-50
2022/03/03 08:23:32;;;;;;;5.97;5.47;;;;;;;;;;4978050;28;20808;-51
2022/03/03 08:26:00;;;;;;;6.00;5.50;;;;;;;;;;4977840;28;20195;-50
2022/03/03 08:28:29;;;;;;;5.53;4.95;;;;;;;;;;4977855;28;20594;-51
2022/03/03 08:31:01;;;;;;;6.35;5.85;;;;;;;;;;4978247;28;20214;-50
2022/03/03 08:33:36;;;;;;;5.57;5.10;;;;;;;;;;4976447;28;20215;-51
2022/03/03 08:36:06;;;;;;;6.28;5.68;;;;;;;;;;4978218;28;20290;-50
2022/03/03 08:38:35;;;;;;;6.03;5.47;;;;;;;;;;4977170;28;20245;-51
2022/03/03 08:41:03;;;;;;;6.10;5.60;;;;;;;;;;4978148;28;20262;-51
2022/03/03 08:43:32;;;;;;;5.78;5.28;;;;;;;;;;4977419;28;20240;-51
2022/03/03 08:46:02;;;;;;;6.03;5.43;;;;;;;;;;4977214;28;20200;-51
2022/03/03 08:48:31;;;;;;;6.20;5.57;;;;;;;;;;4977502;28;20207;-51
2022/03/03 08:50:59;;;;;;;5.90;5.20;;;;;;;;;;4977398;28;20719;-51
2022/03/03 08:53:29;;;;;;;5.68;5.18;;;;;;;;;;4976068;28;20581;-51
2022/03/03 08:55:58;;;;;;;5.80;5.20;;;;;;;;;;4976987;28;20227;-51
2022/03/03 08:58:26;;;;;;;5.85;5.35;;;;;;;;;;4977321;28;20204;-51
2022/03/03 09:00:53;;;;;;;6.20;5.70;;;;;;;;;;4977542;28;20211;-51
2022/03/03 09:03:22;;;;;;;5.80;5.30;;;;;;;;;;4977152;28;20207;-51
2022/03/03 09:05:50;;;;;;;5.97;5.40;;;;;;;;;;4977383;28;20248;-51
2022/03/03 09:08:17;;;;;;;6.47;5.88;;;;;;;;;;4977270;28;20215;-51
2022/03/03 09:10:46;;;;;;;5.70;5.20;;;;;;;;;;4976541;28;20270;-50
2022/03/03 09:13:13;;;;;;;5.45;5.05;;;;;;;;;;4976681;28;20610;-51
2022/03/03 09:15:41;;;;;;;6.05;5.45;;;;;;;;;;4977600;28;20291;-51
2022/03/03 09:18:08;;;;;;;5.72;5.22;;;;;;;;;;4977017;28;20208;-51
2022/03/03 09:20:36;;;;;;;5.50;5.00;;;;;;;;;;4977079;28;20744;-51
2022/03/03 09:23:04;;;;;;;6.07;5.57;;;;;;;;;;4976740;28;20200;-51
2022/03/03 09:25:36;;;;;;;5.93;5.43;;;;;;;;;;4976488;28;20212;-51
2022/03/03 09:28:04;;;;;;;5.80;5.25;;;;;;;;;;4976585;28;20211;-51
2022/03/03 09:30:32;;;;;;;5.93;5.43;;;;;;;;;;4976874;28;20204;-51
2022/03/03 09:33:00;;;;;;;5.85;5.32;;;;;;;;;;4976596;28;20665;-51
2022/03/03 09:35:28;;;;;;;6.13;5.63;;;;;;;;;;4977232;28;20207;-50
2022/03/03 09:37:55;;;;;;;5.45;5.05;;;;;;;;;;4976585;28;20322;-51
2022/03/03 09:40:22;;;;;;;6.15;5.65;;;;;;;;;;4976696;28;20208;-51
2022/03/03 09:42:57;;;;;;;5.70;5.20;;;;;;;;;;4976356;28;20204;-51
2022/03/03 09:45:26;;;;;;;5.60;5.10;;;;;;;;;;4967523;28;20338;-51
2022/03/03 09:47:54;;;;;;;5.45;4.95;;;;;;;;;;4976213;28;20203;-51
2022/03/03 09:50:22;;;;;;;5.28;4.82;;;;;;;;;;4977137;28;20200;-51
2022/03/03 09:52:49;;;;;;;5.65;5.15;;;;;;;;;;4976558;28;20339;-51
2022/03/03 09:55:17;;;;;;;5.30;4.90;;;;;;;;;;4976944;28;20208;-51
2022/03/03 09:57:45;;;;;;;5.80;5.30;;;;;;;;;;4975951;28;20291;-51
2022/03/03 10:00:13;;;;;;;5.60;5.07;;;;;;;;;;4977128;28;20215;-51
2022/03/03 10:02:59;;;;;;;5.47;4.97;;;;;;;;;;4976039;28;20211;-51
2022/03/03 10:05:31;;;;;;;5.40;4.93;;;;;;;;;;4975710;28;20212;-51
2022/03/03 10:08:02;;;;;;;5.72;5.15;;;;;;;;;;4975754;28;20207;-51
2022/03/03 10:10:29;;;;;;;5.70;5.20;;;;;;;;;;4976627;28;20199;-51
2022/03/03 10:12:58;;;;;;;5.97;5.50;;;;;;;;;;4976065;28;20200;-51
2022/03/03 10:15:28;;;;;;;5.43;5.03;;;;;;;;;;4957304;29;20271;-51
2022/03/03 10:18:02;;;;;;;5.30;4.80;;;;;;;;;;4973256;28;20253;-51
2022/03/03 10:20:30;;;;;;;5.25;4.85;;;;;;;;;;4975710;28;20203;-51
2022/03/03 10:23:00;;;;;;;5.85;5.32;;;;;;;;;;4975315;28;20615;-51
2022/03/03 10:25:30;;;;;;;6.20;4.78;;;;;;;;;;4973423;28;20215;-51
2022/03/03 10:27:58;;;;;;;5.72;5.22;;;;;;;;;;4974705;28;20318;-51
2022/03/03 10:30:25;;;;;;;5.32;4.82;;;;;;;;;;4975116;28;20208;-51
2022/03/03 10:32:52;;;;;;;5.50;5.00;;;;;;;;;;4974730;28;20273;-51
2022/03/03 10:35:21;;;;;;;6.13;5.28;;;;;;;;;;4975268;28;20614;-51
2022/03/03 10:37:50;;;;;;;6.55;5.25;;;;;;;;;;4974702;28;20322;-51
2022/03/03 10:40:18;;;;;;;11.80;10.20;;;;;;;;;;4975269;28;20207;-51
2022/03/03 10:42:48;;;;;;;24.70;22.13;;;;;;;;;;4975790;28;20258;-51
2022/03/03 10:45:17;;;;;;;29.52;26.27;;;;;;;;;;4972975;28;20239;-51
2022/03/03 10:47:46;;;;;;;36.28;32.53;;;;;;;;;;4975507;28;20195;-51
2022/03/03 10:50:13;;;;;;;48.55;43.80;;;;;;;;;;4974621;28;20203;-51
2022/03/03 10:52:44;;;;;;;66.63;60.08;;;;;;;;;;4974366;28;20204;-51
2022/03/03 10:55:14;;;;;;;93.95;85.03;;;;;;;;;;4975531;28;20222;-51
2022/03/03 10:57:42;;;;;;;106.90;96.97;;;;;;;;;;4975881;28;20565;-51
2022/03/03 11:00:11;;;;;;;106.07;95.95;;;;;;;;;;4955895;29;20558;-51
2022/03/03 11:02:39;;;;;;;104.25;94.15;;;;;;;;;;4963739;28;20195;-51
2022/03/03 11:05:09;;;;;;;101.47;91.55;;;;;;;;;;4975821;28;20207;-51
2022/03/03 11:07:37;;;;;;;92.50;83.63;;;;;;;;;;4973275;28;20210;-51
2022/03/03 11:10:07;;;;;;;89.13;80.63;;;;;;;;;;4974754;28;20306;-51
2022/03/03 11:12:34;;;;;;;79.03;71.63;;;;;;;;;;4973980;28;20212;-51
2022/03/03 11:15:03;;;;;;;75.60;68.28;;;;;;;;;;4974166;28;20207;-51
2022/03/03 11:17:30;;;;;;;76.03;68.55;;;;;;;;;;4974318;28;20239;-51
2022/03/03 11:19:59;;;;;;;74.43;67.50;;;;;;;;;;4974266;28;20203;-51
2022/03/03 11:22:26;;;;;;;69.85;63.30;;;;;;;;;;4975089;28;20195;-51
2022/03/03 11:24:54;;;;;;;66.85;60.55;;;;;;;;;;4974161;28;20238;-51
2022/03/03 11:27:32;;;;;;;61.80;55.83;;;;;;;;;;4974607;28;20259;-51
2022/03/03 11:30:12;;;;;;;62.67;56.67;;;;;;;;;;4974783;28;20262;-51
2022/03/03 11:32:39;;;;;;;60.10;54.13;;;;;;;;;;4974757;28;20812;-51
2022/03/03 11:35:10;;;;;;;58.85;53.25;;;;;;;;;;4976965;28;20287;-51
2022/03/03 11:37:40;;;;;;;54.90;49.83;;;;;;;;;;4979040;28;20231;-51
2022/03/03 11:40:07;;;;;;;55.25;50.00;;;;;;;;;;4977833;28;20203;-51
2022/03/03 11:42:38;;;;;;;52.35;47.45;;;;;;;;;;4977677;28;20550;-51
2022/03/03 11:45:19;;;;;;;50.08;45.38;;;;;;;;;;4977304;28;20579;-51
2022/03/03 11:47:47;;;;;;;48.80;44.05;;;;;;;;;;4978498;28;20571;-51
2022/03/03 11:50:23;;;;;;;48.22;43.45;;;;;;;;;;4978067;28;20270;-51
2022/03/03 11:52:57;;;;;;;45.95;41.65;;;;;;;;;;4975509;28;20203;-51
2022/03/03 11:55:29;;;;;;;44.00;39.72;;;;;;;;;;4976987;28;20638;-51
2022/03/03 11:57:59;;;;;;;42.55;38.50;;;;;;;;;;4976390;28;20223;-51
2022/03/03 12:00:26;;;;;;;42.65;38.80;;;;;;;;;;4976760;28;20203;-51
2022/03/03 12:02:58;;;;;;;41.17;37.40;;;;;;;;;;4977064;28;20267;-51
2022/03/03 12:05:35;;;;;;;38.40;34.83;;;;;;;;;;4978004;28;20262;-51
2022/03/03 12:08:04;;;;;;;38.55;34.88;;;;;;;;;;4977917;28;20650;-52
2022/03/03 12:10:31;;;;;;;37.60;34.10;;;;;;;;;;4978686;28;20302;-51
2022/03/03 12:13:17;;;;;;;37.00;33.40;;;;;;;;;;4978562;28;20692;-51
2022/03/03 12:16:06;;;;;;;34.58;31.38;;;;;;;;;;4963671;28;20223;-51
2022/03/03 12:18:36;;;;;;;33.72;30.60;;;;;;;;;;4977217;28;20555;-51
2022/03/03 12:21:18;;;;;;;32.35;29.25;;;;;;;;;;4977375;28;20283;-51
2022/03/03 12:23:45;;;;;;;32.03;29.08;;;;;;;;;;4976042;28;20203;-51
2022/03/03 12:26:12;;;;;;;31.67;28.77;;;;;;;;;;4977096;28;20219;-51
2022/03/03 12:28:41;;;;;;;29.92;26.92;;;;;;;;;;4977634;28;20204;-51
2022/03/03 12:31:21;;;;;;;29.15;26.50;;;;;;;;;;4976331;28;20211;-51
2022/03/03 12:33:59;;;;;;;27.90;25.30;;;;;;;;;;4976858;28;20211;-51
2022/03/03 12:36:26;;;;;;;29.08;26.27;;;;;;;;;;4977009;28;20231;-51
2022/03/03 12:38:54;;;;;;;28.02;25.45;;;;;;;;;;4977036;28;20215;-51
2022/03/03 12:41:24;;;;;;;26.63;24.13;;;;;;;;;;4976903;28;20562;-51
2022/03/03 12:43:52;;;;;;;26.20;23.67;;;;;;;;;;4975991;28;20232;-51
2022/03/03 12:46:21;;;;;;;25.27;22.88;;;;;;;;;;4975595;28;20270;-51
2022/03/03 12:48:48;;;;;;;25.27;23.05;;;;;;;;;;4975749;28;20575;-51
2022/03/03 12:51:16;;;;;;;24.52;22.13;;;;;;;;;;4976175;28;20207;-51
2022/03/03 12:53:47;;;;;;;23.23;21.13;;;;;;;;;;4975598;28;20203;-51
2022/03/03 12:56:21;;;;;;;23.45;21.45;;;;;;;;;;4975356;28;20294;-51
2022/03/03 12:58:48;;;;;;;22.75;20.63;;;;;;;;;;4974613;28;20207;-51
2022/03/03 13:01:21;;;;;;;22.27;19.98;;;;;;;;;;4975265;28;20216;-51
2022/03/03 13:03:48;;;;;;;22.70;20.60;;;;;;;;;;4975360;28;20204;-51
2022/03/03 13:06:15;;;;;;;20.38;18.50;;;;;;;;;;4975800;28;20204;-51
2022/03/03 13:08:43;;;;;;;20.60;18.77;;;;;;;;;;4974622;28;20236;-51
2022/03/03 13:11:11;;;;;;;19.55;17.80;;;;;;;;;;4976143;28;20204;-51
2022/03/03 13:13:45;;;;;;;19.27;17.63;;;;;;;;;;4975390;28;20639;-51
2022/03/03 13:16:13;;;;;;;18.73;16.92;;;;;;;;;;4975468;28;20192;-51
2022/03/03 13:18:43;;;;;;;17.80;16.08;;;;;;;;;;4975391;28;20262;-51
2022/03/03 13:21:11;;;;;;;19.15;17.45;;;;;;;;;;4975964;28;20217;-51
2022/03/03 13:23:41;;;;;;;17.10;15.52;;;;;;;;;;4986623;28;20203;-51
2022/03/03 13:26:10;;;;;;;17.00;15.43;;;;;;;;;;4994698;28;20585;-50
2022/03/03 13:28:40;;;;;;;16.33;14.88;;;;;;;;;;4975512;28;20606;-51
2022/03/03 13:31:07;;;;;;;16.33;14.88;;;;;;;;;;4975432;28;20274;-51
2022/03/03 13:33:42;;;;;;;15.48;14.07;;;;;;;;;;4974511;28;20270;-51
2022/03/03 13:36:14;;;;;;;15.15;13.80;;;;;;;;;;4975757;28;20239;-51
2022/03/03 13:38:42;;;;;;;15.20;13.80;;;;;;;;;;4974291;28;20655;-51
2022/03/03 13:41:22;;;;;;;14.63;13.32;;;;;;;;;;4974829;28;20270;-51
2022/03/03 13:43:50;;;;;;;14.40;13.10;;;;;;;;;;4934054;28;1176449;-51
2022/03/03 13:46:30;;;;;;;13.52;12.32;;;;;;;;;;4975287;28;20208;-51
2022/03/03 13:49:01;;;;;;;14.18;12.88;;;;;;;;;;4975147;28;20203;-51
2022/03/03 13:51:33;;;;;;;13.43;12.18;;;;;;;;;;4975027;28;20266;-51
2022/03/03 13:54:01;;;;;;;12.93;11.70;;;;;;;;;;4975333;28;20208;-51
2022/03/03 13:56:30;;;;;;;12.43;11.32;;;;;;;;;;4975188;28;20207;-51
2022/03/03 13:59:08;;;;;;;12.13;11.02;;;;;;;;;;4974822;28;20223;-51
2022/03/03 14:01:36;;;;;;;12.70;11.60;;;;;;;;;;4974968;28;20211;-51
2022/03/03 14:04:12;;;;;;;12.38;11.27;;;;;;;;;;4975205;28;20210;-51
2022/03/03 14:06:43;;;;;;;11.68;10.68;;;;;;;;;;4975486;28;20288;-51
2022/03/03 14:09:10;;;;;;;11.50;10.50;;;;;;;;;;4974335;28;20590;-51
2022/03/03 14:11:39;;;;;;;11.88;10.70;;;;;;;;;;4975715;28;20749;-51
2022/03/03 14:14:06;;;;;;;10.52;9.63;;;;;;;;;;4974924;28;20208;-51
2022/03/03 14:16:35;;;;;;;11.15;10.15;;;;;;;;;;4974661;28;20211;-51
2022/03/03 14:19:03;;;;;;;10.50;9.60;;;;;;;;;;4974136;28;20298;-51
2022/03/03 14:21:33;;;;;;;10.85;9.82;;;;;;;;;;4974558;28;20262;-51
2022/03/03 14:24:01;;;;;;;10.13;9.23;;;;;;;;;;4975137;28;20231;-51
2022/03/03 14:26:28;;;;;;;10.13;9.23;;;;;;;;;;4975762;28;20486;-51
2022/03/03 14:28:56;;;;;;;10.20;9.25;;;;;;;;;;4974863;28;20208;-51
2022/03/03 14:31:23;;;;;;;9.73;8.93;;;;;;;;;;4975415;28;20270;-51
2022/03/03 14:33:51;;;;;;;10.00;9.10;;;;;;;;;;4973904;28;20203;-51
2022/03/03 14:36:19;;;;;;;9.70;8.85;;;;;;;;;;4974769;28;20214;-51
2022/03/03 14:38:50;;;;;;;8.98;8.18;;;;;;;;;;4974089;28;20395;-51
2022/03/03 14:41:17;;;;;;;10.13;9.18;;;;;;;;;;4974706;28;20203;-51
2022/03/03 14:43:45;;;;;;;8.80;8.10;;;;;;;;;;4973731;28;20266;-51
2022/03/03 14:46:12;;;;;;;9.35;8.55;;;;;;;;;;4973538;28;20274;-51
2022/03/03 14:48:40;;;;;;;8.75;8.05;;;;;;;;;;4974187;28;20200;-51